Time;durP1;ratioP1;P1;durP2;ratioP2;P2;SDS_P1;SDS_P2;PMS_P1;PMS_P2;Temp;Humidity;BMP_temperature;BMP_pressure;BME280_temperature;BME280_humidity;BME280_pressure;Samples;Min_cycle;Max_cycle;Signal;HPM_P1;HPM_P2
2021/03/30 00:00:53;;;;;;;69.80;26.52;;;;;;;10.56;43.95;96131.66;4947088;28;20031;-84
2021/03/30 00:03:18;;;;;;;56.38;24.15;;;;;;;10.57;43.91;96130.66;4970984;28;20423;-82
2021/03/30 00:05:44;;;;;;;62.25;22.40;;;;;;;10.59;43.14;96117.47;4984090;28;20035;-84
2021/03/30 00:08:09;;;;;;;62.22;25.08;;;;;;;10.44;44.58;96122.84;4998466;28;20041;-83
2021/03/30 00:10:40;;;;;;;74.30;26.95;;;;;;;10.49;43.91;96110.06;4965420;28;20398;-83
2021/03/30 00:13:05;;;;;;;49.88;22.65;;;;;;;10.45;43.60;96122.66;4997030;28;20049;-82
2021/03/30 00:15:31;;;;;;;33.40;13.20;;;;;;;10.58;42.57;96114.06;4980115;28;20042;-83
2021/03/30 00:17:56;;;;;;;18.33;9.35;;;;;;;10.48;42.94;96108.44;4979538;28;20027;-82
2021/03/30 00:20:22;;;;;;;29.42;11.38;;;;;;;10.34;43.19;96104.22;4980595;28;20041;-82
2021/03/30 00:22:47;;;;;;;19.85;8.40;;;;;;;10.32;42.94;96107.03;4975596;28;20031;-82
2021/03/30 00:25:13;;;;;;;29.45;11.85;;;;;;;10.22;42.77;96093.59;4965301;28;20101;-83
2021/03/30 00:27:38;;;;;;;24.55;10.75;;;;;;;10.17;43.61;96101.97;4982622;28;20043;-83
2021/03/30 00:30:06;;;;;;;30.08;10.05;;;;;;;10.11;43.10;96107.97;4967465;28;20113;-83
2021/03/30 00:32:31;;;;;;;38.58;10.02;;;;;;;10.10;43.12;96105.56;4989391;28;20104;-84
2021/03/30 00:34:57;;;;;;;27.70;8.60;;;;;;;10.13;43.51;96108.56;4995071;28;20038;-83
2021/03/30 00:37:22;;;;;;;15.45;7.30;;;;;;;10.10;43.33;96100.38;5326630;23;20046;-83
2021/03/30 00:39:48;;;;;;;15.48;7.25;;;;;;;10.14;42.59;96102.38;5021956;28;20038;-83
2021/03/30 00:45:31;;;;;;;13.38;6.82;;;;;;;10.12;42.97;96098.38;4994858;28;20070;-82
2021/03/30 00:47:56;;;;;;;10.98;5.85;;;;;;;10.11;43.15;96097.56;4993361;28;20043;-82
2021/03/30 00:50:23;;;;;;;14.20;6.20;;;;;;;10.14;42.96;96096.38;4995897;28;20023;-83
2021/03/30 00:52:50;;;;;;;19.30;6.57;;;;;;;10.15;42.81;96087.59;4978288;28;20042;-82
2021/03/30 00:55:16;;;;;;;21.08;6.15;;;;;;;10.17;42.32;96094.19;4994245;28;20038;-82
2021/03/30 00:57:41;;;;;;;12.93;6.22;;;;;;;10.05;43.36;96090.56;4994429;28;20058;-82
2021/03/30 01:00:11;;;;;;;13.98;5.35;;;;;;;10.05;43.47;96087.16;4991056;28;20058;-82
2021/03/30 01:02:37;;;;;;;11.90;5.07;;;;;;;10.00;43.08;96095.53;4987516;28;20039;-83
2021/03/30 01:05:07;;;;;;;10.52;5.38;;;;;;;9.95;43.30;96091.94;5003338;23;20097;-83
2021/03/30 01:07:33;;;;;;;10.85;4.78;;;;;;;9.96;43.58;96090.94;5001961;28;20057;-83
2021/03/30 01:10:17;;;;;;;8.18;5.13;;;;;;;9.86;42.96;96093.91;4994893;28;20022;-83
2021/03/30 01:13:20;;;;;;;11.18;5.28;;;;;;;9.82;43.40;96087.50;4992156;28;20039;-83
2021/03/30 01:15:59;;;;;;;14.85;5.18;;;;;;;9.78;43.30;96089.69;4996474;28;20054;-85
2021/03/30 01:18:43;;;;;;;13.25;5.28;;;;;;;9.68;43.56;96091.06;4978956;28;20058;-85
2021/03/30 01:21:15;;;;;;;10.32;5.13;;;;;;;9.66;43.38;96088.66;4995547;28;20050;-85
2021/03/30 01:23:52;;;;;;;12.38;5.40;;;;;;;9.60;43.37;96095.44;4989609;28;20048;-85
2021/03/30 01:26:49;;;;;;;9.23;5.13;;;;;;;9.56;43.42;96094.19;4994984;28;20042;-84
2021/03/30 01:29:41;;;;;;;13.07;5.65;;;;;;;9.54;43.90;96103.97;4993163;28;20113;-83
2021/03/30 01:32:16;;;;;;;8.73;5.32;;;;;;;9.48;43.95;96098.75;4993683;28;20034;-83
2021/03/30 01:34:43;;;;;;;14.63;6.32;;;;;;;9.44;44.56;96098.34;4977266;28;20034;-83
2021/03/30 01:37:09;;;;;;;18.75;5.95;;;;;;;9.49;44.38;96097.78;4977132;28;20062;-83
2021/03/30 01:39:35;;;;;;;8.80;5.22;;;;;;;9.41;44.13;96101.31;4981300;28;20039;-82
2021/03/30 01:42:00;;;;;;;12.45;5.50;;;;;;;9.39;44.98;96092.91;4982761;28;20043;-83
2021/03/30 01:44:26;;;;;;;11.30;5.95;;;;;;;9.33;45.01;96098.88;4965475;28;20035;-83
2021/03/30 01:46:53;;;;;;;10.57;5.28;;;;;;;9.28;43.99;96088.28;4981320;28;20035;-82
2021/03/30 01:49:22;;;;;;;11.60;5.13;;;;;;;9.31;43.88;96093.09;4986555;28;20039;-82
2021/03/30 01:51:47;;;;;;;19.60;5.28;;;;;;;9.31;43.72;96090.50;4985293;28;20026;-83
2021/03/30 01:54:13;;;;;;;12.32;4.90;;;;;;;9.28;44.18;96090.88;4969560;28;20050;-83
2021/03/30 01:56:40;;;;;;;15.38;5.22;;;;;;;9.30;44.47;96096.69;4992018;28;20126;-83
2021/03/30 01:59:06;;;;;;;14.30;6.28;;;;;;;9.25;44.08;96091.25;4991853;28;20046;-84
2021/03/30 02:01:32;;;;;;;17.58;9.82;;;;;;;9.26;44.07;96085.06;4978492;28;20068;-84
2021/03/30 02:03:58;;;;;;;27.00;11.15;;;;;;;9.24;44.19;96087.06;4976440;28;20043;-83
2021/03/30 02:06:24;;;;;;;22.80;10.20;;;;;;;9.20;44.63;96083.25;4975375;28;20026;-83
2021/03/30 02:08:49;;;;;;;15.73;8.68;;;;;;;9.24;44.20;96074.06;4978758;28;20058;-83
2021/03/30 02:11:25;;;;;;;19.80;7.35;;;;;;;9.21;44.36;96074.47;4977917;28;20443;-83
2021/03/30 02:13:55;;;;;;;11.80;7.10;;;;;;;9.13;44.50;96067.66;4959948;28;20070;-83
2021/03/30 02:16:31;;;;;;;20.67;7.60;;;;;;;9.11;44.17;96074.00;4989077;28;20100;-84
2021/03/30 02:19:14;;;;;;;19.67;8.52;;;;;;;9.02;45.00;96063.00;4975320;28;20316;-84
2021/03/30 02:22:04;;;;;;;23.65;11.75;;;;;;;9.00;44.97;96064.97;4992969;28;20110;-83
2021/03/30 02:24:30;;;;;;;12.90;6.55;;;;;;;8.92;44.66;96068.50;4975200;28;20034;-83
2021/03/30 02:26:55;;;;;;;13.55;5.75;;;;;;;8.87;44.07;96063.09;4973001;28;20539;-83
2021/03/30 02:29:23;;;;;;;12.95;7.15;;;;;;;8.86;44.87;96073.66;4989362;28;20042;-82
2021/03/30 02:31:51;;;;;;;18.52;7.43;;;;;;;8.78;45.51;96068.59;4966889;28;20069;-82
2021/03/30 02:34:17;;;;;;;15.85;6.97;;;;;;;8.72;45.30;96068.38;4958239;28;20042;-82
2021/03/30 02:36:43;;;;;;;10.65;6.63;;;;;;;8.77;45.32;96067.81;4981750;28;20060;-83
2021/03/30 02:39:11;;;;;;;14.90;6.70;;;;;;;8.77;44.60;96073.00;4982690;28;20041;-83
2021/03/30 02:41:37;;;;;;;18.15;7.03;;;;;;;8.77;44.70;96077.38;4953287;28;20122;-84
2021/03/30 02:44:04;;;;;;;19.52;7.47;;;;;;;8.71;45.20;96077.16;4986178;28;20053;-83
2021/03/30 02:46:29;;;;;;;19.25;7.07;;;;;;;8.70;45.54;96072.16;4966419;28;20601;-82
2021/03/30 02:48:54;;;;;;;12.13;6.68;;;;;;;8.60;45.55;96076.84;4981213;28;20026;-83
2021/03/30 02:51:22;;;;;;;15.70;6.70;;;;;;;8.53;45.92;96078.63;4977390;28;20039;-83
2021/03/30 02:53:47;;;;;;;16.40;6.35;;;;;;;8.49;45.58;96080.00;4975008;28;20023;-83
2021/03/30 02:56:13;;;;;;;21.23;7.35;;;;;;;8.43;45.85;96082.31;4988819;28;20031;-83
2021/03/30 02:58:38;;;;;;;23.13;8.57;;;;;;;8.43;46.45;96086.69;4982202;28;20042;-83
2021/03/30 03:01:04;;;;;;;19.92;8.02;;;;;;;8.42;45.82;96078.13;4997876;23;20034;-84
2021/03/30 03:03:32;;;;;;;12.20;7.43;;;;;;;8.46;45.66;96077.75;5001255;28;20042;-84
2021/03/30 03:06:00;;;;;;;15.85;7.72;;;;;;;8.42;45.60;96072.94;4955982;28;20103;-84
2021/03/30 03:08:26;;;;;;;15.23;6.47;;;;;;;8.47;45.67;96081.97;5009693;23;20037;-83
2021/03/30 03:10:52;;;;;;;21.70;7.30;;;;;;;8.48;45.23;96080.97;5019783;28;20040;-86
2021/03/30 03:13:17;;;;;;;19.95;6.78;;;;;;;8.50;45.15;96079.00;4987890;28;20050;-83
2021/03/30 03:15:43;;;;;;;21.25;9.02;;;;;;;8.47;45.99;96077.59;4985453;28;20049;-83
2021/03/30 03:18:09;;;;;;;18.98;8.25;;;;;;;8.42;45.68;96085.91;4984134;28;20038;-83
2021/03/30 03:20:35;;;;;;;21.27;12.30;;;;;;;8.47;45.62;96079.38;4999461;28;20040;-84
2021/03/30 03:23:00;;;;;;;36.47;17.92;;;;;;;8.37;46.57;96088.25;4985087;28;20038;-84
2021/03/30 03:25:26;;;;;;;55.63;21.90;;;;;;;8.24;46.89;96082.13;4984609;28;20048;-83
2021/03/30 03:27:52;;;;;;;55.20;27.40;;;;;;;8.20;46.96;96081.69;5009684;28;20495;-84
2021/03/30 03:30:18;;;;;;;52.55;30.65;;;;;;;8.06;47.00;96079.97;4992860;28;20026;-83
2021/03/30 03:32:43;;;;;;;52.70;29.95;;;;;;;8.10;47.43;96081.19;4987160;28;20129;-82
2021/03/30 03:35:12;;;;;;;72.45;39.10;;;;;;;8.17;47.44;96074.28;4983774;28;20068;-83
2021/03/30 03:37:44;;;;;;;65.57;33.05;;;;;;;8.10;47.68;96070.81;5025809;23;20025;-80
2021/03/30 03:40:11;;;;;;;61.72;27.27;;;;;;;8.18;47.46;96081.09;4991631;28;20031;-80
2021/03/30 03:42:37;;;;;;;63.92;27.30;;;;;;;8.18;47.42;96083.66;4991390;28;20130;-84
2021/03/30 03:45:04;;;;;;;60.65;24.55;;;;;;;8.12;47.70;96079.22;4950379;28;20048;-83
2021/03/30 03:47:30;;;;;;;59.13;24.98;;;;;;;8.13;47.04;96078.22;4964571;28;20043;-83
2021/03/30 03:49:55;;;;;;;53.10;24.30;;;;;;;8.11;47.73;96083.59;4977128;28;20041;-83
2021/03/30 03:52:20;;;;;;;72.72;27.75;;;;;;;8.01;47.45;96082.31;4977300;28;20042;-82
2021/03/30 03:54:46;;;;;;;79.60;29.40;;;;;;;7.88;48.48;96071.81;4959477;28;20039;-83
2021/03/30 03:57:20;;;;;;;99.47;30.63;;;;;;;7.92;48.38;96078.22;4975778;28;20034;-84
2021/03/30 03:59:46;;;;;;;89.88;31.83;;;;;;;7.86;48.12;96089.31;4981437;28;20042;-84
2021/03/30 04:02:25;;;;;;;121.30;42.38;;;;;;;7.81;48.77;96082.13;4951612;28;20047;-83
2021/03/30 04:04:59;;;;;;;107.50;37.33;;;;;;;7.72;49.22;96094.34;4964573;28;20074;-83
2021/03/30 04:07:28;;;;;;;70.85;27.67;;;;;;;7.75;48.47;96098.38;4983277;28;20065;-84
2021/03/30 04:09:54;;;;;;;104.07;37.33;;;;;;;7.75;48.49;96101.75;4950690;28;20086;-82
2021/03/30 04:12:21;;;;;;;91.82;29.58;;;;;;;7.67;48.66;96099.28;4982448;28;20400;-83
2021/03/30 04:14:47;;;;;;;129.95;47.00;;;;;;;7.74;48.50;96104.53;4979649;28;20061;-83
2021/03/30 04:17:16;;;;;;;117.53;46.28;;;;;;;7.75;48.97;96106.94;4946511;28;20031;-83
2021/03/30 04:19:41;;;;;;;168.60;67.72;;;;;;;7.69;49.11;96105.09;5041869;23;20068;-84
2021/03/30 04:22:07;;;;;;;240.85;103.72;;;;;;;7.55;49.76;96107.69;4992240;28;20726;-83
2021/03/30 04:24:32;;;;;;;211.15;95.90;;;;;;;7.53;49.99;96110.47;4970958;28;20093;-83
2021/03/30 04:26:58;;;;;;;224.93;103.65;;;;;;;7.54;50.02;96106.88;4997523;28;20101;-82
2021/03/30 04:29:23;;;;;;;183.85;98.18;;;;;;;7.49;49.61;96119.59;4965093;28;20450;-82
2021/03/30 04:31:49;;;;;;;204.73;101.10;;;;;;;7.57;49.91;96113.47;4994602;28;20041;-82
2021/03/30 04:34:15;;;;;;;185.40;95.57;;;;;;;7.57;50.19;96111.69;4996956;28;20113;-83
2021/03/30 04:36:40;;;;;;;198.13;91.80;;;;;;;7.66;49.93;96109.81;5000024;28;20038;-83
2021/03/30 04:39:06;;;;;;;168.77;85.80;;;;;;;7.61;49.89;96110.34;4982913;28;20510;-83
2021/03/30 04:41:31;;;;;;;152.60;76.20;;;;;;;7.96;49.32;96110.53;4990020;28;20042;-83
2021/03/30 04:43:57;;;;;;;153.85;70.75;;;;;;;8.66;47.55;96112.44;4990559;28;20069;-83
2021/03/30 04:46:22;;;;;;;147.25;69.22;;;;;;;9.59;45.04;96114.56;5040347;23;20084;-83
2021/03/30 04:48:48;;;;;;;166.30;72.40;;;;;;;10.54;43.20;96097.25;4987189;28;20051;-84
2021/03/30 04:51:13;;;;;;;129.60;65.05;;;;;;;11.65;40.02;96098.06;4988782;28;20097;-84
2021/03/30 04:53:39;;;;;;;120.93;58.00;;;;;;;12.62;38.83;96107.34;4957336;28;20031;-84
2021/03/30 04:56:05;;;;;;;140.60;60.15;;;;;;;13.84;36.06;96110.22;4987644;28;20041;-84
2021/03/30 04:58:30;;;;;;;136.70;63.15;;;;;;;15.06;33.65;96107.22;4991748;28;20084;-84
2021/03/30 05:00:56;;;;;;;140.95;63.30;;;;;;;15.92;32.35;96106.44;4993061;28;20053;-85
2021/03/30 05:03:21;;;;;;;158.75;65.68;;;;;;;17.12;29.93;96101.94;4956933;28;20027;-84
2021/03/30 05:05:47;;;;;;;142.23;67.90;;;;;;;18.00;28.33;96104.41;4973741;28;20687;-84
2021/03/30 05:08:12;;;;;;;149.15;65.38;;;;;;;18.87;27.22;96100.78;4993362;28;20038;-83
2021/03/30 05:10:38;;;;;;;140.00;69.45;;;;;;;19.68;26.20;96111.03;4990250;28;20042;-83
2021/03/30 05:13:03;;;;;;;167.13;70.65;;;;;;;20.70;25.32;96098.13;4977205;28;20038;-83
2021/03/30 05:15:29;;;;;;;147.20;68.63;;;;;;;21.34;23.67;96102.88;4988890;28;20038;-83
2021/03/30 05:17:54;;;;;;;177.50;67.20;;;;;;;21.85;23.22;96100.06;5016271;23;20057;-83
2021/03/30 05:20:20;;;;;;;165.70;69.95;;;;;;;22.39;22.73;96099.25;5001283;28;20034;-83
2021/03/30 05:22:45;;;;;;;159.90;70.00;;;;;;;23.00;22.03;96104.16;4961850;28;20102;-83
2021/03/30 05:25:12;;;;;;;160.50;69.70;;;;;;;23.56;21.19;96103.59;4961885;28;20046;-84
2021/03/30 05:27:37;;;;;;;152.10;64.40;;;;;;;23.75;21.30;96109.78;4990673;28;20434;-83
2021/03/30 05:30:04;;;;;;;149.02;62.40;;;;;;;24.43;20.97;96106.81;4971979;28;20026;-84
2021/03/30 05:32:30;;;;;;;146.07;53.17;;;;;;;24.24;20.29;96100.66;4972051;28;20038;-85
2021/03/30 05:34:55;;;;;;;144.63;52.85;;;;;;;23.78;21.04;96103.91;4985985;28;20034;-83
2021/03/30 05:37:21;;;;;;;146.02;48.25;;;;;;;23.46;21.59;96107.16;4940881;28;20062;-81
2021/03/30 05:39:46;;;;;;;56.58;18.92;;;;;;;23.24;20.51;96099.66;4942697;28;20035;-81
2021/03/30 05:42:15;;;;;;;25.98;10.93;;;;;;;22.82;20.15;96097.66;4977188;28;20042;-81
2021/03/30 05:44:42;;;;;;;19.17;9.45;;;;;;;22.58;20.29;96100.19;4997252;28;20046;-77
2021/03/30 05:47:16;;;;;;;19.58;9.48;;;;;;;22.61;20.70;96112.88;4947007;28;20037;-78
2021/03/30 05:49:43;;;;;;;24.63;12.05;;;;;;;22.54;20.23;96111.63;4971113;28;20498;-84
2021/03/30 05:52:20;;;;;;;12.88;5.38;;;;;;;22.36;20.44;96113.06;4957876;28;20027;-84
2021/03/30 05:54:47;;;;;;;13.25;5.28;;;;;;;21.95;20.89;96118.53;4952047;28;20545;-84
2021/03/30 05:57:15;;;;;;;18.83;5.10;;;;;;;21.72;21.52;96114.66;4956433;28;20046;-85
2021/03/30 05:59:41;;;;;;;21.10;4.30;;;;;;;21.56;21.43;96124.50;4953961;28;20096;-84
2021/03/30 06:02:30;;;;;;;10.63;4.90;;;;;;;21.29;21.52;96124.00;5029479;23;20060;-82
2021/03/30 06:04:56;;;;;;;12.27;5.72;;;;;;;20.75;22.48;96116.63;4984288;28;20305;-84
2021/03/30 06:07:21;;;;;;;17.73;5.65;;;;;;;20.62;22.67;96119.78;4965378;28;20054;-83
2021/03/30 06:09:47;;;;;;;17.75;6.53;;;;;;;20.35;22.66;96122.63;4958266;28;20030;-85
2021/03/30 06:12:14;;;;;;;15.27;7.18;;;;;;;20.27;23.53;96129.19;4975785;28;20039;-83
2021/03/30 06:14:41;;;;;;;29.90;8.93;;;;;;;20.19;22.93;96132.38;4958317;28;20468;-86
2021/03/30 06:17:13;;;;;;;21.70;6.60;;;;;;;20.00;22.98;96133.84;4974541;28;20142;-84
2021/03/30 06:19:50;;;;;;;15.10;5.60;;;;;;;19.85;23.13;96137.25;4975881;28;20110;-83
2021/03/30 06:22:16;;;;;;;13.60;4.95;;;;;;;19.53;23.58;96137.34;4991431;28;20089;-84
2021/03/30 06:24:41;;;;;;;12.15;5.15;;;;;;;19.39;23.23;96136.19;4962230;28;20455;-80
2021/03/30 06:27:07;;;;;;;11.98;4.50;;;;;;;19.33;23.44;96139.81;4975883;28;20041;-83
2021/03/30 06:29:37;;;;;;;7.45;4.22;;;;;;;19.37;23.53;96138.28;4976082;28;20070;-84
2021/03/30 06:32:04;;;;;;;10.45;4.22;;;;;;;19.42;23.23;96143.59;4959696;28;20122;-83
2021/03/30 06:34:30;;;;;;;13.95;4.72;;;;;;;19.42;23.82;96133.03;4974508;28;20077;-82
2021/03/30 06:36:56;;;;;;;18.35;4.20;;;;;;;19.50;23.60;96135.19;4965408;28;20031;-83
2021/03/30 06:39:38;;;;;;;12.57;4.80;;;;;;;19.71;22.92;96144.84;4997313;28;20049;-82
2021/03/30 06:42:18;;;;;;;9.27;3.78;;;;;;;19.86;22.66;96144.13;4996930;28;20069;-83
2021/03/30 06:44:43;;;;;;;8.27;4.97;;;;;;;19.91;22.75;96138.06;4968274;28;20106;-82
2021/03/30 06:47:14;;;;;;;13.32;5.10;;;;;;;19.90;22.88;96132.00;4995119;28;20030;-83
2021/03/30 06:50:17;;;;;;;14.40;4.87;;;;;;;20.06;23.05;96143.41;4962621;28;20078;-85
2021/03/30 06:53:10;;;;;;;13.18;5.55;;;;;;;20.24;22.72;96137.66;4918372;29;20056;-84
2021/03/30 06:55:35;;;;;;;13.43;5.28;;;;;;;20.17;22.31;96139.72;4978076;28;20038;-85
2021/03/30 06:58:01;;;;;;;11.85;6.80;;;;;;;19.01;23.14;96131.97;4976950;28;20484;-83
2021/03/30 07:00:34;;;;;;;32.50;10.73;;;;;;;18.59;24.15;96141.34;4976334;28;20031;-82
2021/03/30 07:03:03;;;;;;;10.02;5.97;;;;;;;18.10;24.55;96134.53;4973422;28;20038;-82
2021/03/30 07:08:06;;;;;;;13.93;6.43;;;;;;;17.94;24.23;96134.34;5055216;23;20671;-84
2021/03/30 07:10:33;;;;;;;9.90;5.03;;;;;;;17.94;24.32;96134.34;4994812;28;20519;-84
2021/03/30 07:12:59;;;;;;;13.65;5.55;;;;;;;18.24;23.70;96133.09;4979618;28;20096;-85
2021/03/30 07:15:25;;;;;;;10.90;6.00;;;;;;;18.23;23.56;96134.13;4962267;28;20046;-86
2021/03/30 07:18:05;;;;;;;10.05;5.50;;;;;;;18.31;24.35;96128.41;4995426;28;20058;-85
2021/03/30 07:20:34;;;;;;;15.75;8.40;;;;;;;17.99;24.94;96126.50;4978258;28;20110;-85
2021/03/30 07:23:00;;;;;;;31.15;10.48;;;;;;;18.03;24.88;96116.25;4977636;28;20050;-84
2021/03/30 07:25:27;;;;;;;18.15;9.57;;;;;;;18.14;24.97;96125.06;4962332;28;20038;-82
2021/03/30 07:28:00;;;;;;;11.45;6.35;;;;;;;18.36;24.10;96131.09;4965265;28;20093;-83
2021/03/30 07:30:26;;;;;;;12.25;6.57;;;;;;;18.42;23.70;96119.59;4985626;28;20120;-84
2021/03/30 07:33:10;;;;;;;13.15;5.68;;;;;;;18.58;23.42;96123.94;4990652;28;20113;-81
2021/03/30 07:35:37;;;;;;;8.45;5.15;;;;;;;18.62;23.18;96131.34;4997881;28;20030;-83
2021/03/30 07:38:13;;;;;;;17.50;5.40;;;;;;;18.69;24.24;96127.47;4997813;28;20113;-84
2021/03/30 07:40:40;;;;;;;10.82;4.55;;;;;;;18.87;23.17;96131.59;4999544;28;20034;-84
2021/03/30 07:43:09;;;;;;;12.43;5.13;;;;;;;18.77;22.69;96134.16;4976805;28;20026;-82
2021/03/30 07:45:37;;;;;;;10.63;5.22;;;;;;;18.66;22.79;96130.63;4984901;28;20027;-81
2021/03/30 07:48:03;;;;;;;9.52;4.57;;;;;;;18.41;23.05;96133.00;5007299;28;20082;-84
2021/03/30 07:50:49;;;;;;;11.60;4.78;;;;;;;18.35;23.92;96129.50;4962959;28;20339;-83
2021/03/30 07:53:38;;;;;;;10.55;4.53;;;;;;;18.52;23.03;96130.19;4993315;28;20034;-82
2021/03/30 07:56:11;;;;;;;31.98;5.13;;;;;;;18.43;23.01;96131.72;4993548;28;20546;-84
2021/03/30 07:58:41;;;;;;;6.15;4.57;;;;;;;18.38;22.64;96130.84;4978248;28;20035;-83
2021/03/30 08:01:07;;;;;;;9.85;4.47;;;;;;;18.43;22.78;96134.34;4976419;28;20042;-83
2021/03/30 08:03:34;;;;;;;9.52;4.65;;;;;;;18.15;22.83;96126.66;4977022;28;20022;-81
2021/03/30 08:06:32;;;;;;;14.10;4.93;;;;;;;17.91;23.70;96129.56;4961109;28;20022;-83
2021/03/30 08:08:58;;;;;;;10.10;5.00;;;;;;;18.05;23.35;96131.81;4992372;28;20098;-84
2021/03/30 08:11:39;;;;;;;14.77;4.45;;;;;;;18.20;22.95;96129.34;4994234;28;20069;-83
2021/03/30 08:14:26;;;;;;;11.45;4.68;;;;;;;18.31;22.73;96128.41;4994297;28;20026;-84
2021/03/30 08:16:52;;;;;;;7.13;4.25;;;;;;;17.73;22.90;96126.44;4994221;28;20035;-81
2021/03/30 08:19:18;;;;;;;7.78;3.60;;;;;;;17.35;22.90;96139.31;4974390;28;20064;-80
2021/03/30 08:21:53;;;;;;;8.45;4.10;;;;;;;16.92;24.06;96126.06;4991781;28;20042;-81
2021/03/30 08:24:19;;;;;;;16.85;4.90;;;;;;;16.99;23.71;96124.06;4994457;28;20034;-81
2021/03/30 08:26:46;;;;;;;8.65;4.20;;;;;;;17.10;23.53;96139.75;4982250;28;20065;-79
2021/03/30 08:29:11;;;;;;;17.67;4.63;;;;;;;17.16;24.08;96132.75;5001525;28;20040;-81
2021/03/30 08:31:39;;;;;;;10.93;3.92;;;;;;;16.89;22.93;96132.59;5005186;28;20058;-80
2021/03/30 08:34:15;;;;;;;7.75;4.18;;;;;;;16.47;23.58;96125.06;5010265;28;20018;-82
2021/03/30 08:36:51;;;;;;;8.02;3.75;;;;;;;16.44;24.46;96119.47;4985343;28;20057;-80
2021/03/30 08:39:23;;;;;;;9.00;4.05;;;;;;;16.21;24.32;96121.16;5004249;28;20141;-81
2021/03/30 08:41:55;;;;;;;9.37;4.27;;;;;;;15.89;24.33;96125.28;5009131;28;20295;-82
2021/03/30 08:44:28;;;;;;;7.72;3.28;;;;;;;15.83;23.46;96126.22;5003805;28;20065;-82
2021/03/30 08:46:53;;;;;;;;;;;;;;;15.69;23.87;96130.91;5002056;28;20503;-82
2021/03/30 08:49:22;;;;;;;4.45;3.10;;;;;;;15.27;23.92;96130.22;4993760;28;19924;-84
2021/03/30 08:51:48;;;;;;;9.23;4.25;;;;;;;15.16;25.51;96129.22;5000894;28;20038;-78
2021/03/30 08:54:14;;;;;;;10.55;4.28;;;;;;;15.23;26.29;96131.72;5004272;28;20092;-78
2021/03/30 08:56:41;;;;;;;5.60;3.88;;;;;;;15.35;25.70;96132.53;5011847;28;20046;-77
2021/03/30 08:59:07;;;;;;;7.78;4.00;;;;;;;15.49;25.53;96123.41;4993276;28;20038;-78
2021/03/30 09:01:32;;;;;;;4.82;3.78;;;;;;;15.76;25.49;96117.66;4996992;28;20037;-77
2021/03/30 09:03:58;;;;;;;11.80;4.82;;;;;;;15.86;25.30;96117.88;4996518;28;20034;-78
2021/03/30 09:06:35;;;;;;;15.75;4.22;;;;;;;15.91;25.08;96121.38;4980521;28;20521;-76
2021/03/30 09:09:00;;;;;;;10.88;4.30;;;;;;;15.77;26.93;96117.44;4997292;28;20130;-77
2021/03/30 09:11:27;;;;;;;8.05;3.65;;;;;;;15.61;25.06;96118.16;4992343;28;20052;-78
2021/03/30 09:14:06;;;;;;;8.98;4.20;;;;;;;15.63;25.66;96107.44;4960501;28;20039;-77
2021/03/30 09:16:33;;;;;;;5.03;3.58;;;;;;;15.71;26.69;96114.94;4999492;28;20034;-82
2021/03/30 09:19:18;;;;;;;7.10;3.28;;;;;;;15.76;31.63;96117.66;4992902;28;20062;-82
2021/03/30 09:21:54;;;;;;;8.05;3.40;;;;;;;15.97;25.61;96113.63;4991310;28;20038;-79
2021/03/30 09:24:31;;;;;;;4.93;3.63;;;;;;;15.93;24.75;96109.84;4999523;28;20027;-80
2021/03/30 09:26:57;;;;;;;6.28;3.53;;;;;;;15.49;24.84;96101.63;5009530;28;20033;-80
2021/03/30 09:29:22;;;;;;;12.38;4.05;;;;;;;15.48;25.32;96100.84;4970688;28;20030;-80
2021/03/30 09:31:48;;;;;;;8.30;3.72;;;;;;;15.32;25.74;96104.16;4989269;28;20053;-78
2021/03/30 09:34:14;;;;;;;8.73;3.88;;;;;;;14.62;26.01;96109.34;5030744;28;20022;-79
2021/03/30 09:36:44;;;;;;;9.43;3.88;;;;;;;14.60;27.28;96103.53;4981230;28;20069;-78
2021/03/30 09:39:16;;;;;;;10.48;4.45;;;;;;;14.61;26.73;96099.91;5008247;28;20040;-79
2021/03/30 09:41:42;;;;;;;6.35;4.75;;;;;;;14.62;28.47;96096.25;4994791;28;20042;-80
2021/03/30 09:44:08;;;;;;;7.97;5.05;;;;;;;14.81;27.76;96099.59;4987825;28;20041;-79
2021/03/30 09:46:34;;;;;;;11.00;4.10;;;;;;;14.99;27.99;96078.53;4984534;28;20034;-79
2021/03/30 09:49:00;;;;;;;17.75;5.22;;;;;;;15.13;26.45;96076.47;4973012;28;20030;-79
2021/03/30 09:51:25;;;;;;;13.07;5.32;;;;;;;15.19;27.04;96076.38;4995659;28;20058;-78
2021/03/30 09:53:51;;;;;;;10.07;5.15;;;;;;;15.31;26.31;96073.75;4979380;28;20073;-79
2021/03/30 09:56:27;;;;;;;18.95;4.78;;;;;;;15.41;26.75;96079.16;4997100;28;20038;-81
2021/03/30 09:58:56;;;;;;;15.75;4.40;;;;;;;15.54;26.66;96072.88;4982232;28;20034;-80
2021/03/30 10:04:21;;;;;;;10.25;4.50;;;;;;;15.75;25.01;96074.09;4973509;28;20047;-78
2021/03/30 10:06:47;;;;;;;9.07;4.28;;;;;;;15.14;26.53;96078.88;4999018;28;20030;-77
2021/03/30 10:09:13;;;;;;;6.50;4.47;;;;;;;15.32;25.74;96070.09;4962838;28;20048;-76
2021/03/30 10:11:38;;;;;;;8.30;4.40;;;;;;;15.21;25.33;96063.81;4998194;28;20046;-77
2021/03/30 10:14:24;;;;;;;8.00;4.40;;;;;;;14.70;26.15;96065.31;4993194;28;20478;-77
2021/03/30 10:16:54;;;;;;;12.70;4.25;;;;;;;14.38;26.26;96051.69;4991561;28;20045;-78
2021/03/30 10:19:20;;;;;;;6.28;3.85;;;;;;;14.45;26.77;96053.44;4977540;28;20495;-75
2021/03/30 10:21:48;;;;;;;14.80;4.03;;;;;;;14.57;26.80;96059.50;4993238;28;20034;-79
2021/03/30 10:24:16;;;;;;;7.55;3.60;;;;;;;14.45;25.24;96051.63;4990859;28;20026;-77
2021/03/30 10:26:41;;;;;;;5.75;3.63;;;;;;;14.39;26.40;96045.44;4991793;28;20034;-78
2021/03/30 10:29:17;;;;;;;4.35;3.28;;;;;;;14.49;26.72;96041.53;4991152;28;20116;-79
2021/03/30 10:34:31;;;;;;;8.45;4.50;;;;;;;14.13;27.45;96030.13;4989505;28;20082;-80
2021/03/30 10:37:00;;;;;;;8.85;4.10;;;;;;;14.05;27.68;96038.31;4960452;28;20034;-80
2021/03/30 10:39:37;;;;;;;9.90;4.63;;;;;;;14.03;27.81;96040.34;4990971;28;20030;-79
2021/03/30 10:42:07;;;;;;;5.60;4.22;;;;;;;13.98;27.68;96032.38;4977028;28;20042;-79
2021/03/30 10:44:54;;;;;;;5.82;4.13;;;;;;;14.09;27.65;96029.78;4970484;28;20034;-80
2021/03/30 10:47:27;;;;;;;8.75;4.25;;;;;;;14.28;27.37;96027.91;5010315;28;20065;-79
2021/03/30 10:49:56;;;;;;;7.78;3.80;;;;;;;14.55;25.65;96028.31;4991748;28;20034;-77
2021/03/30 10:52:25;;;;;;;6.82;3.90;;;;;;;14.70;26.75;96035.72;5008623;28;20084;-80
2021/03/30 10:54:53;;;;;;;13.18;4.22;;;;;;;14.46;27.12;96018.38;4992734;28;20026;-76
2021/03/30 10:57:19;;;;;;;5.47;4.20;;;;;;;13.96;27.41;96013.50;4975221;28;20521;-77
2021/03/30 10:59:45;;;;;;;8.45;4.43;;;;;;;13.90;27.74;96014.38;4974371;28;20029;-77
2021/03/30 11:02:11;;;;;;;7.32;4.78;;;;;;;13.95;27.46;96015.31;4990563;28;20106;-78
2021/03/30 11:04:37;;;;;;;8.85;4.40;;;;;;;13.76;27.74;96017.19;4991800;28;20058;-79
2021/03/30 11:07:03;;;;;;;7.47;4.13;;;;;;;13.88;27.72;96014.63;4976607;28;20030;-79
2021/03/30 11:09:29;;;;;;;7.32;3.58;;;;;;;14.12;27.41;96012.84;4959756;28;20038;-79
2021/03/30 11:11:54;;;;;;;12.60;4.43;;;;;;;14.38;26.35;96012.44;4992482;28;20450;-78
2021/03/30 11:14:21;;;;;;;4.10;3.80;;;;;;;14.44;26.34;96015.22;4992273;28;20133;-78
2021/03/30 11:16:47;;;;;;;15.20;4.45;;;;;;;14.32;26.45;96009.94;4991630;28;20030;-80
2021/03/30 11:19:13;;;;;;;9.05;3.95;;;;;;;14.25;26.43;96012.66;4977070;28;20526;-80
2021/03/30 11:21:39;;;;;;;12.18;4.22;;;;;;;14.33;25.97;96014.16;5056102;23;20078;-79
2021/03/30 11:24:10;;;;;;;8.63;3.72;;;;;;;14.50;25.55;95998.63;4958006;28;20027;-80
2021/03/30 11:26:37;;;;;;;5.93;4.17;;;;;;;14.71;25.82;95998.03;4957941;28;20039;-80
2021/03/30 11:29:03;;;;;;;9.18;4.53;;;;;;;14.84;25.86;96010.91;4956376;28;20055;-81
2021/03/30 11:39:42;;;;;;;12.18;4.15;;;;;;;15.34;25.59;95986.78;4952689;29;20027;-79
2021/03/30 11:42:07;;;;;;;11.40;3.97;;;;;;;15.45;25.29;95964.97;4936542;29;20503;-80
2021/03/30 11:44:33;;;;;;;11.93;3.95;;;;;;;15.26;25.66;95966.16;4953842;29;20399;-80
2021/03/30 11:46:59;;;;;;;13.48;4.30;;;;;;;15.15;25.89;95977.50;4953785;29;20066;-80
2021/03/30 11:49:28;;;;;;;4.80;3.88;;;;;;;15.27;25.75;95976.41;4954688;29;20043;-80
2021/03/30 11:51:53;;;;;;;8.52;4.03;;;;;;;15.44;25.50;95973.84;4934979;29;20045;-80
2021/03/30 11:54:19;;;;;;;4.80;3.55;;;;;;;15.35;25.66;95970.03;4951402;29;20035;-79